createdAt,value
2023-04-15T00:02:02.653Z,95700.56
2023-04-15T00:04:31.707Z,95706.75
2023-04-15T00:06:59.284Z,95710.75
2023-04-15T00:09:26.864Z,95707.81
2023-04-15T00:11:54.423Z,95710.06
2023-04-15T00:14:22.004Z,95707.91
2023-04-15T00:16:55.221Z,95710.31
2023-04-15T00:19:24.186Z,95704.00
2023-04-15T00:21:51.955Z,95704.25
2023-04-15T00:24:19.500Z,95705.06
2023-04-15T00:26:47.164Z,95699.97
2023-04-15T00:29:15.205Z,95702.81
2023-04-15T00:31:43.231Z,95708.25
2023-04-15T00:34:10.720Z,95700.53
2023-04-15T00:36:39.559Z,95693.13
2023-04-15T00:39:07.060Z,95690.72
2023-04-15T00:41:35.022Z,95696.88
2023-04-15T00:44:03.329Z,95688.00
2023-04-15T00:46:32.638Z,95689.94
2023-04-15T00:49:00.343Z,95691.56
2023-04-15T00:51:28.023Z,95688.28
2023-04-15T00:53:57.022Z,95696.53
2023-04-15T00:56:25.321Z,95697.00
2023-04-15T00:58:53.250Z,95693.88
2023-04-15T01:01:22.753Z,95696.91
2023-04-15T01:03:51.396Z,95695.56
2023-04-15T01:06:19.442Z,95690.69
2023-04-15T01:08:47.004Z,95690.94
2023-04-15T01:11:16.756Z,95693.78
2023-04-15T01:13:44.494Z,95687.03
2023-04-15T01:16:13.062Z,95688.09
2023-04-15T01:18:40.932Z,95691.09
2023-04-15T01:21:08.742Z,95684.56
2023-04-15T01:23:38.566Z,95687.84
2023-04-15T01:26:08.903Z,95685.94
2023-04-15T01:28:37.357Z,95683.41
2023-04-15T01:31:09.217Z,95689.63
2023-04-15T01:33:36.754Z,95691.31
2023-04-15T01:36:05.101Z,95690.84
2023-04-15T01:38:33.174Z,95692.97
2023-04-15T01:41:00.720Z,95690.56
2023-04-15T01:43:29.689Z,95692.16
2023-04-15T01:45:57.496Z,95698.59
2023-04-15T01:48:24.997Z,95689.25
2023-04-15T01:50:53.470Z,95691.19
2023-04-15T01:53:21.332Z,95687.97
2023-04-15T01:55:49.015Z,95683.31
2023-04-15T01:58:16.522Z,95688.03
2023-04-15T02:00:45.528Z,95684.81
2023-04-15T02:03:13.185Z,95682.56
2023-04-15T02:05:40.789Z,95679.00
2023-04-15T02:08:08.275Z,95683.84
2023-04-15T02:10:35.826Z,95680.09
2023-04-15T02:13:03.362Z,95686.06
2023-04-15T02:15:30.971Z,95680.25
2023-04-15T02:18:00.935Z,95687.75
2023-04-15T02:20:30.286Z,95680.31
2023-04-15T02:22:58.026Z,95679.03
2023-04-15T02:25:25.530Z,95676.81
2023-04-15T02:27:53.255Z,95677.16
2023-04-15T02:30:21.329Z,95675.81
2023-04-15T02:32:48.880Z,95669.31
2023-04-15T02:35:19.734Z,95676.91
2023-04-15T02:37:47.282Z,95671.91
2023-04-15T02:40:14.818Z,95674.50
2023-04-15T02:42:44.201Z,95671.59
2023-04-15T02:45:13.020Z,95669.13
2023-04-15T02:47:41.424Z,95663.91
2023-04-15T02:50:12.383Z,95668.19
2023-04-15T02:52:42.229Z,95667.03
2023-04-15T02:55:10.360Z,95657.66
2023-04-15T02:57:39.125Z,95664.28
2023-04-15T03:00:09.756Z,95667.34
2023-04-15T03:02:38.280Z,95667.97
2023-04-15T03:05:06.942Z,95670.03
2023-04-15T03:07:34.446Z,95665.81
2023-04-15T03:10:03.471Z,95665.66
2023-04-15T03:12:31.061Z,95675.47
2023-04-15T03:14:58.572Z,95670.94
2023-04-15T03:17:26.092Z,95669.13
2023-04-15T03:19:53.621Z,95668.34
2023-04-15T03:22:21.290Z,95670.13
2023-04-15T03:24:48.854Z,95658.34
2023-04-15T03:27:17.750Z,95666.13
2023-04-15T03:29:45.261Z,95670.13
2023-04-15T03:32:12.846Z,95682.06
2023-04-15T03:34:40.375Z,95667.97
2023-04-15T03:37:08.002Z,95676.03
2023-04-15T03:39:35.703Z,95675.03
2023-04-15T03:42:03.856Z,95668.94
2023-04-15T03:44:32.810Z,95675.53
2023-04-15T03:47:00.348Z,95676.81
2023-04-15T03:49:27.828Z,95682.78
2023-04-15T03:51:55.766Z,95674.66
2023-04-15T03:54:23.242Z,95671.72
2023-04-15T03:56:50.756Z,95680.03
2023-04-15T03:59:18.251Z,95674.13
2023-04-15T04:01:47.244Z,95678.16
2023-04-15T04:04:14.970Z,95676.75
2023-04-15T04:06:42.585Z,95675.22
2023-04-15T04:09:10.090Z,95675.03
2023-04-15T04:11:37.834Z,95679.91
2023-04-15T04:14:05.678Z,95685.38
2023-04-15T04:16:33.279Z,95683.69
2023-04-15T04:19:02.432Z,95678.50
2023-04-15T04:21:30.744Z,95683.75
2023-04-15T04:23:59.005Z,95682.38
2023-04-15T04:26:27.042Z,95681.97
2023-04-15T04:28:54.551Z,95687.41
2023-04-15T04:31:23.327Z,95675.66
2023-04-15T04:33:51.254Z,95676.34
2023-04-15T04:36:20.064Z,95684.81
2023-04-15T04:38:47.612Z,95687.38
2023-04-15T04:41:15.138Z,95678.66
2023-04-15T04:43:42.611Z,95687.22
2023-04-15T04:46:10.362Z,95682.84
2023-04-15T04:48:37.872Z,95679.31
2023-04-15T04:51:06.073Z,95683.13
2023-04-15T04:53:35.084Z,95682.44
2023-04-15T04:56:02.589Z,95680.16
2023-04-15T04:58:30.205Z,95683.97
2023-04-15T05:00:58.454Z,95679.00
2023-04-15T05:03:26.311Z,95674.47
2023-04-15T05:05:54.719Z,95677.16
2023-04-15T05:08:22.296Z,95673.88
2023-04-15T05:10:51.252Z,95677.19
2023-04-15T05:13:18.786Z,95682.31
2023-04-15T05:15:46.314Z,95682.16
2023-04-15T05:18:13.884Z,95682.63
2023-04-15T05:20:41.441Z,95686.09
2023-04-15T05:23:09.004Z,95689.69
2023-04-15T05:25:36.890Z,95690.56
2023-04-15T05:28:06.021Z,95695.88
2023-04-15T05:30:33.590Z,95690.78
2023-04-15T05:33:01.144Z,95697.19
2023-04-15T05:35:28.645Z,95696.16
2023-04-15T05:37:56.349Z,95694.34
2023-04-15T05:40:24.361Z,95692.28
2023-04-15T05:42:51.886Z,95697.75
2023-04-15T05:45:21.050Z,95697.75
2023-04-15T05:47:50.553Z,95702.22
2023-04-15T05:50:18.466Z,95705.69
2023-04-15T05:52:46.862Z,95705.50
2023-04-15T05:55:15.189Z,95693.34
2023-04-15T05:57:42.688Z,95701.75
2023-04-15T06:00:11.233Z,95709.16
2023-04-15T06:02:40.445Z,95709.59
2023-04-15T06:05:10.010Z,95713.63
2023-04-15T06:07:38.070Z,95713.06
2023-04-15T06:10:07.210Z,95716.09
2023-04-15T06:12:34.803Z,95713.50
2023-04-15T06:15:02.505Z,95716.09
2023-04-15T06:17:30.046Z,95710.53
2023-04-15T06:19:58.976Z,95716.59
2023-04-15T06:22:26.559Z,95726.69
2023-04-15T06:24:54.132Z,95719.16
2023-04-15T06:27:22.963Z,95725.34
2023-04-15T06:29:50.482Z,95723.56
2023-04-15T06:32:17.995Z,95724.78
2023-04-15T06:34:45.517Z,95731.84
2023-04-15T06:37:16.311Z,95725.28
2023-04-15T06:39:44.549Z,95727.06
2023-04-15T06:42:12.333Z,95729.31
2023-04-15T06:44:40.016Z,95723.38
2023-04-15T06:47:07.585Z,95725.06
2023-04-15T06:49:35.384Z,95721.72
2023-04-15T06:52:04.949Z,95733.97
2023-04-15T06:54:33.831Z,95731.59
2023-04-15T06:57:01.400Z,95728.81
2023-04-15T06:59:28.946Z,95726.84
2023-04-15T07:01:56.732Z,95727.66
2023-04-15T07:04:24.467Z,95730.06
2023-04-15T07:06:52.033Z,95735.25
2023-04-15T07:09:20.694Z,95731.59
2023-04-15T07:11:50.031Z,95729.63
2023-04-15T07:14:17.769Z,95725.66
2023-04-15T07:16:45.604Z,95727.31
2023-04-15T07:19:13.194Z,95723.78
2023-04-15T07:21:41.951Z,95723.84
2023-04-15T07:24:10.448Z,95726.31
2023-04-15T07:26:37.984Z,95727.22
2023-04-15T07:29:07.139Z,95727.53
2023-04-15T07:31:34.714Z,95730.84
2023-04-15T07:34:02.630Z,95724.72
2023-04-15T07:36:30.253Z,95729.97
2023-04-15T07:38:57.809Z,95720.78
2023-04-15T07:41:25.740Z,95724.00
2023-04-15T07:43:53.222Z,95728.41
2023-04-15T07:46:23.899Z,95731.19
2023-04-15T07:48:52.271Z,95731.19
2023-04-15T07:51:21.000Z,95722.34
2023-04-15T07:53:48.690Z,95725.53
2023-04-15T07:56:16.166Z,95730.38
2023-04-15T07:58:44.060Z,95731.16
2023-04-15T08:01:11.689Z,95728.38
2023-04-15T08:03:41.190Z,95724.00
2023-04-15T08:06:09.473Z,95715.00
2023-04-15T08:08:37.509Z,95724.03
2023-04-15T08:11:05.091Z,95724.66
2023-04-15T08:13:32.637Z,95722.06
2023-04-15T08:16:19.639Z,95727.91
2023-04-15T08:18:49.354Z,95726.50
2023-04-15T08:21:18.676Z,95724.53
2023-04-15T08:23:47.567Z,95724.13
2023-04-15T08:26:15.259Z,95726.34
2023-04-15T08:28:46.721Z,95727.34
2023-04-15T08:31:16.212Z,95734.97
2023-04-15T08:33:43.879Z,95735.00
2023-04-15T08:36:13.812Z,95729.00
2023-04-15T08:38:41.768Z,95725.00
2023-04-15T08:41:21.695Z,95734.59
2023-04-15T08:43:54.017Z,95726.19
2023-04-15T08:46:22.834Z,95736.59
2023-04-15T08:48:51.254Z,95729.38
2023-04-15T08:51:21.001Z,95737.44
2023-04-15T08:53:50.189Z,95725.00
2023-04-15T08:56:18.492Z,95732.22
2023-04-15T08:58:46.250Z,95730.22
2023-04-15T09:01:14.331Z,95727.44
2023-04-15T09:03:43.057Z,95723.41
2023-04-15T09:06:11.099Z,95729.44
2023-04-15T09:08:40.431Z,95732.03
2023-04-15T09:11:08.316Z,95722.19
2023-04-15T09:13:35.870Z,95726.97
2023-04-15T09:16:04.287Z,95719.34
2023-04-15T09:18:33.669Z,95731.94
2023-04-15T09:21:08.943Z,95725.28
2023-04-15T09:23:37.178Z,95724.25
2023-04-15T09:26:07.111Z,95724.44
2023-04-15T09:28:35.888Z,95724.22
2023-04-15T09:31:03.580Z,95719.00
2023-04-15T09:33:31.557Z,95722.41
2023-04-15T09:36:01.447Z,95723.22
2023-04-15T09:38:29.482Z,95726.63
2023-04-15T09:40:57.118Z,95713.16
2023-04-15T09:43:38.850Z,95715.53
2023-04-15T09:46:06.713Z,95718.16
2023-04-15T09:48:34.332Z,95726.16
2023-04-15T09:51:02.702Z,95727.16
2023-04-15T09:53:31.917Z,95731.19
2023-04-15T09:56:02.300Z,95733.56
2023-04-15T09:58:33.366Z,95735.19
2023-04-15T10:01:03.922Z,95737.97
2023-04-15T10:03:33.314Z,95731.09
2023-04-15T10:06:02.242Z,95737.91
2023-04-15T10:08:32.873Z,95729.09
2023-04-15T10:11:02.574Z,95725.66
2023-04-15T10:13:36.025Z,95729.47
2023-04-15T10:16:07.502Z,95727.03
2023-04-15T10:18:38.969Z,95730.41
2023-04-15T10:21:07.228Z,95735.38
2023-04-15T10:23:35.178Z,95732.53
2023-04-15T10:26:05.446Z,95739.00
2023-04-15T10:28:35.914Z,95735.63
2023-04-15T10:31:05.822Z,95745.28
2023-04-15T10:33:34.248Z,95735.47
2023-04-15T10:36:02.297Z,95741.44
2023-04-15T10:38:37.327Z,95735.16
2023-04-15T10:41:20.842Z,95740.97
2023-04-15T10:43:52.875Z,95736.31
2023-04-15T10:46:22.918Z,95749.63
2023-04-15T10:48:52.403Z,95742.56
2023-04-15T10:51:29.238Z,95745.78
2023-04-15T10:54:00.885Z,95754.81
2023-04-15T10:56:30.634Z,95751.97
2023-04-15T10:59:01.956Z,95756.22
2023-04-15T11:01:52.866Z,95754.03
2023-04-15T11:04:55.912Z,95748.81
2023-04-15T11:07:37.765Z,95751.00
2023-04-15T11:10:26.144Z,95744.75
2023-04-15T11:12:58.544Z,95751.38
2023-04-15T11:15:29.982Z,95755.22
2023-04-15T11:17:58.365Z,95764.66
2023-04-15T11:20:26.207Z,95765.66
2023-04-15T11:23:13.711Z,95779.97
2023-04-15T11:25:43.867Z,95770.34
2023-04-15T11:28:14.110Z,95775.16
2023-04-15T11:30:43.430Z,95777.94
2023-04-15T11:33:13.788Z,95778.72
2023-04-15T11:35:42.502Z,95787.97
2023-04-15T11:38:11.925Z,95785.09
2023-04-15T11:40:40.293Z,95787.47
2023-04-15T11:43:09.298Z,95786.41
2023-04-15T11:45:39.195Z,95782.31
2023-04-15T11:48:08.305Z,95780.22
2023-04-15T11:50:36.867Z,95783.16
2023-04-15T11:53:08.327Z,95784.13
2023-04-15T11:55:44.108Z,95783.50
2023-04-15T11:58:15.023Z,95788.88
2023-04-15T12:00:49.639Z,95784.22
2023-04-15T12:03:25.929Z,95788.16
2023-04-15T12:06:12.386Z,95795.75
2023-04-15T12:09:04.723Z,95786.50
2023-04-15T12:11:43.613Z,95785.19
2023-04-15T12:14:14.183Z,95785.22
2023-04-15T12:16:48.394Z,95799.41
2023-04-15T12:19:19.270Z,95785.63
2023-04-15T12:21:48.885Z,95799.59
2023-04-15T12:24:16.519Z,95789.84
2023-04-15T12:26:50.415Z,95801.19
2023-04-15T12:29:18.549Z,95800.03
2023-04-15T12:31:52.347Z,95808.91
2023-04-15T12:34:26.786Z,95807.72
2023-04-15T12:36:54.679Z,95813.97
2023-04-15T12:39:23.835Z,95818.03
2023-04-15T12:41:51.507Z,95820.69
2023-04-15T12:44:19.101Z,95826.72
2023-04-15T12:46:46.872Z,95828.38
2023-04-15T12:49:16.034Z,95835.81
2023-04-15T12:51:43.774Z,95835.03
2023-04-15T12:54:11.267Z,95845.50
2023-04-15T12:56:38.756Z,95849.31
2023-04-15T12:59:06.337Z,95850.13
2023-04-15T13:01:34.152Z,95852.50
2023-04-15T13:04:01.917Z,95861.97
2023-04-15T13:06:33.152Z,95865.78
2023-04-15T13:09:01.911Z,95862.75
2023-04-15T13:11:33.567Z,95859.94
2023-04-15T13:14:02.206Z,95866.97
2023-04-15T13:16:30.090Z,95870.78
2023-04-15T13:18:57.729Z,95867.56
2023-04-15T13:21:25.326Z,95867.38
2023-04-15T13:23:54.425Z,95871.03
2023-04-15T13:26:22.190Z,95871.63
2023-04-15T13:28:49.738Z,95880.28
2023-04-15T13:31:17.300Z,95872.25
2023-04-15T13:33:44.872Z,95890.72
2023-04-15T13:36:12.421Z,95881.47
2023-04-15T13:38:39.987Z,95887.72
2023-04-15T13:41:08.846Z,95893.13
2023-04-15T13:43:36.661Z,95898.34
2023-04-15T13:46:04.323Z,95889.91
2023-04-15T13:48:31.973Z,95897.75
2023-04-15T13:50:59.500Z,95896.16
2023-04-15T13:53:33.901Z,95892.94
2023-04-15T13:56:07.306Z,95887.91
2023-04-15T13:58:37.923Z,95901.56
2023-04-15T14:01:06.999Z,95905.19
2023-04-15T14:03:36.245Z,95897.56
2023-04-15T14:06:04.271Z,95909.81
2023-04-15T14:08:32.038Z,95914.41
2023-04-15T14:10:59.663Z,95918.03
2023-04-15T14:13:27.148Z,95920.84
2023-04-15T14:15:56.262Z,95917.03
2023-04-15T14:18:23.841Z,95919.63
2023-04-15T14:20:51.645Z,95920.44
2023-04-15T14:23:19.250Z,95928.44
2023-04-15T14:25:48.332Z,95925.66
2023-04-15T14:28:16.201Z,95930.44
2023-04-15T14:30:43.842Z,95934.88
2023-04-15T14:33:13.080Z,95937.66
2023-04-15T14:35:40.739Z,95935.88
2023-04-15T14:38:10.952Z,95943.91
2023-04-15T14:40:38.990Z,95948.94
2023-04-15T14:43:06.565Z,95945.09
2023-04-15T14:45:34.267Z,95952.94
2023-04-15T14:48:02.453Z,95958.75
2023-04-15T14:50:31.484Z,95956.53
2023-04-15T14:52:59.454Z,95967.75
2023-04-15T14:55:26.948Z,95971.34
2023-04-15T14:57:54.768Z,95978.13
2023-04-15T15:00:22.319Z,95981.34
2023-04-15T15:02:50.044Z,95991.56
2023-04-15T15:05:17.733Z,95985.31
2023-04-15T15:07:46.876Z,95993.88
2023-04-15T15:10:14.468Z,95993.66
2023-04-15T15:12:41.982Z,96000.84
2023-04-15T15:15:24.875Z,95999.59
2023-04-15T15:17:53.050Z,96005.78
2023-04-15T15:20:20.746Z,96022.19
2023-04-15T15:22:49.637Z,96021.13
2023-04-15T15:25:17.279Z,96024.31
2023-04-15T15:27:45.144Z,96025.69
2023-04-15T15:30:13.617Z,96032.66
2023-04-15T15:32:41.916Z,96041.84
2023-04-15T15:35:10.646Z,96049.44
2023-04-15T15:37:38.538Z,96051.81
2023-04-15T15:40:09.037Z,96054.94
2023-04-15T15:42:36.820Z,96063.72
2023-04-15T15:45:05.154Z,96063.44
2023-04-15T15:47:34.929Z,96067.97
2023-04-15T15:50:06.062Z,96075.50
2023-04-15T15:52:33.778Z,96073.91
2023-04-15T15:55:01.987Z,96078.22
2023-04-15T15:57:30.998Z,96081.13
2023-04-15T16:00:10.266Z,96087.06
2023-04-15T16:03:05.010Z,96093.19
2023-04-15T16:05:30.607Z,96095.53
2023-04-15T16:07:58.210Z,96096.53
2023-04-15T16:10:26.086Z,96096.16
2023-04-15T16:12:55.559Z,96098.56
2023-04-15T16:15:23.727Z,96105.56
2023-04-15T16:17:51.423Z,96110.78
2023-04-15T16:20:18.995Z,96107.56
2023-04-15T16:22:46.661Z,96110.50
2023-04-15T16:25:14.317Z,96115.69
2023-04-15T16:27:57.289Z,96119.94
2023-04-15T16:30:30.351Z,96117.56
2023-04-15T16:32:58.104Z,96118.81
2023-04-15T16:35:25.831Z,96121.06
2023-04-15T16:37:53.336Z,96120.47
2023-04-15T16:40:20.876Z,96123.97
2023-04-15T16:42:48.474Z,96115.91
2023-04-15T16:45:16.204Z,96121.91
2023-04-15T16:47:45.160Z,96129.88
2023-04-15T16:50:12.759Z,96129.09
2023-04-15T16:52:40.392Z,96133.03
2023-04-15T16:55:08.144Z,96141.00
2023-04-15T16:57:46.367Z,96136.44
2023-04-15T17:00:23.564Z,96145.41
2023-04-15T17:02:52.593Z,96143.34
2023-04-15T17:05:20.482Z,96149.72
2023-04-15T17:07:48.220Z,96158.22
2023-04-15T17:10:16.170Z,96156.00
2023-04-15T17:12:43.752Z,96155.72
2023-04-15T17:15:11.473Z,96169.81
2023-04-15T17:17:39.072Z,96165.16
2023-04-15T17:20:08.791Z,96168.72
2023-04-15T17:22:36.361Z,96172.31
2023-04-15T17:25:04.643Z,96172.31
2023-04-15T17:27:32.323Z,96175.72
2023-04-15T17:29:59.928Z,96172.31
2023-04-15T17:32:31.755Z,96173.91
2023-04-15T17:34:59.578Z,96179.75
2023-04-15T17:37:28.498Z,96178.31
2023-04-15T17:39:56.033Z,96185.22
2023-04-15T17:42:23.552Z,96187.50
2023-04-15T17:44:51.078Z,96194.84
2023-04-15T17:47:18.757Z,96197.78
2023-04-15T17:49:47.213Z,96195.09
2023-04-15T17:52:14.779Z,96205.06
2023-04-15T17:54:43.652Z,96209.63
2023-04-15T17:57:11.210Z,96207.81
2023-04-15T17:59:38.779Z,96215.09
2023-04-15T18:02:06.359Z,96214.75
2023-04-15T18:04:34.043Z,96222.19
2023-04-15T18:07:01.897Z,96231.94
2023-04-15T18:09:29.494Z,96235.88
2023-04-15T18:11:58.485Z,96237.41
2023-04-15T18:14:34.335Z,96228.97
2023-04-15T18:17:02.515Z,96241.13
2023-04-15T18:19:30.799Z,96249.56
2023-04-15T18:21:59.817Z,96247.78
2023-04-15T18:24:27.396Z,96247.69
2023-04-15T18:26:55.205Z,96252.88
2023-04-15T18:29:25.212Z,96257.72
2023-04-15T18:31:52.833Z,96258.50
2023-04-15T18:34:20.615Z,96262.28
2023-04-15T18:36:48.199Z,96270.44
2023-04-15T18:39:16.678Z,96264.59
2023-04-15T18:41:44.201Z,96269.97
2023-04-15T18:44:11.716Z,96267.53
2023-04-15T18:46:40.791Z,96275.66
2023-04-15T18:49:08.360Z,96281.84
2023-04-15T18:51:36.923Z,96278.59
2023-04-15T18:54:04.679Z,96286.59
2023-04-15T18:56:32.412Z,96289.00
2023-04-15T18:59:18.425Z,96297.78
2023-04-15T19:01:49.212Z,96301.53
2023-04-15T19:04:16.762Z,96297.13
2023-04-15T19:06:44.304Z,96300.00
2023-04-15T19:09:11.846Z,96305.53
2023-04-15T19:11:39.449Z,96309.41
2023-04-15T19:14:07.063Z,96315.22
2023-04-15T19:16:34.625Z,96318.78
2023-04-15T19:19:03.888Z,96328.22
2023-04-15T19:21:32.935Z,96323.19
2023-04-15T19:24:01.070Z,96329.66
2023-04-15T19:26:28.695Z,96329.66
2023-04-15T19:28:58.864Z,96324.47
2023-04-15T19:31:26.647Z,96332.06
2023-04-15T19:33:54.181Z,96335.28
2023-04-15T19:36:23.136Z,96332.69
2023-04-15T19:38:50.760Z,96340.84
2023-04-15T19:41:18.529Z,96341.81
2023-04-15T19:43:46.116Z,96338.59
2023-04-15T19:46:13.972Z,96342.97
2023-04-15T19:48:41.511Z,96342.00
2023-04-15T19:51:09.098Z,96349.97
2023-04-15T19:53:37.965Z,96350.66
2023-04-15T19:56:05.491Z,96343.72
2023-04-15T19:58:33.408Z,96348.59
2023-04-15T20:01:01.390Z,96347.16
2023-04-15T20:03:29.206Z,96347.97
2023-04-15T20:05:56.956Z,96351.56
2023-04-15T20:08:24.492Z,96354.00
2023-04-15T20:10:53.380Z,96350.25
2023-04-15T20:13:20.968Z,96356.41
